Benton, IL

1:14 PM CDT on August 29, 2014 (GMT -0500)
Northeast of Benton | Change Station
CLOSE
Current Station
Personal Weather Station
Location: Benton, IL
Elevation: 433 ft
Nearby Weather Stations

Elev 433 ft 38.01 °N, 88.90 °W | Updated 11 minutes ago

Partly Cloudy
Partly Cloudy
88.8 °F
Feels Like 101 °F
N
3.0
Wind Variable Wind from South
Gusts 7.0 mph

Today
High -- | Low -- °F
--% Chance of Precip.
Yesterday
High -- | Low -- °F
Precip. -- in
6:22 AM 7:29 PM
Waxing Crescent, 15% visible
Pressure 29.98 in
Visibility 20.0 miles
Clouds Scattered Clouds 3700 ft
Scattered Clouds 4900 ft
Mostly Cloudy 7500 ft
Heat Index 101 °F
Dew Point 76 °F
Humidity 67%
Rainfall 0.00 in
Snow Depth Not available.
UV 5 out of 12
Pollen 10.60 out of 12
Air Quality Not available.
Flu Activity Not available.
METAR KMWA 291753Z 19010KT 20SM SCT037 SCT049 BKN075 31/22 A2998

More Conditions Fewer Conditions

Pressure 29.98 in
Visibility 20.0 miles
Clouds Scattered Clouds 3700 ft
Scattered Clouds 4900 ft
Mostly Cloudy 7500 ft
Heat Index 101 °F
Dew Point 76 °F
Humidity 67%
Rainfall 0.00 in
Snow Depth Not available.
UV 5 out of 12
Pollen 10.60 out of 12
Air Quality Not available.
Flu Activity Not available.
METAR KMWA 291753Z 19010KT 20SM SCT037 SCT049 BKN075 31/22 A2998

More Conditions Fewer Conditions

10-Day Weather Forecast

Almanac

Astronomy

Aug. 29, 2014 Rise Set
Actual Time 6:22 AM CDT 7:29 PM CDT
Civil Twilight 5:55 AM CDT 7:56 PM CDT
Nautical Twilight 5:23 AM CDT 8:28 PM CDT
Astronomical Twilight 4:49 AM CDT 9:02 PM CDT
Moon 10:07 AM CDT 9:31 PM CDT
Length of Visible Light 14h 00m
Length of Day
13h 06m
Tomorrow will be 2m 20s shorter.
Waxing Crescent, 15% of the Moon is Illuminated
Today
Waxing Crescent
Sep 2
First Quarter
Sep 8
Full
Sep 15
Last Quarter
Sep 24
New

Today's Extremes

State Highs State Lows

Community

WunderPhotos

Upload Photos

1,748,309 photos uploaded!

Nearby

Snow Depth

Station Depth Elevation
No new snow has been reported.

Earthquake Activity

City Distance Mag. Time & Date
No recent earthquake activity has been reported nearby.
Minimum magnitude displayed is 2.5.

Coastal Water Temperatures

Place Temperature
No Stations Reporting

Nearby Weather Stations